Time;durP1;ratioP1;P1;durP2;ratioP2;P2;SDS_P1;SDS_P2;PMS_P1;PMS_P2;Temp;Humidity;BMP_temperature;BMP_pressure;BME280_temperature;BME280_humidity;BME280_pressure;Samples;Min_cycle;Max_cycle;Signal;HPM_P1;HPM_P2
2022/07/22 00:02:07;;;;;;;0.53;0.53;;;20.10;99.90;;;;;;5057008;28;20546;-79
2022/07/22 00:04:32;;;;;;;0.50;0.50;;;20.20;99.90;;;;;;5067004;28;20208;-79
2022/07/22 00:06:58;;;;;;;1.83;0.80;;;20.00;99.90;;;;;;5065371;28;20209;-79
2022/07/22 00:09:24;;;;;;;0.90;0.63;;;19.90;99.90;;;;;;5069119;28;20201;-79
2022/07/22 00:11:50;;;;;;;1.47;1.30;;;19.90;99.90;;;;;;5067262;28;20184;-79
2022/07/22 00:14:15;;;;;;;0.70;0.70;;;20.00;99.90;;;;;;5068150;28;20177;-79
2022/07/22 00:16:41;;;;;;;0.53;0.47;;;20.10;99.90;;;;;;5066567;28;20208;-79
2022/07/22 00:19:06;;;;;;;1.37;0.97;;;20.00;99.90;;;;;;5064743;28;20208;-79
2022/07/22 00:21:32;;;;;;;1.03;0.93;;;19.80;99.90;;;;;;5068435;28;20185;-79
2022/07/22 00:23:57;;;;;;;0.57;0.57;;;20.00;99.90;;;;;;5070503;28;20184;-79
2022/07/22 00:26:23;;;;;;;1.20;0.77;;;19.80;99.90;;;;;;5068086;28;20275;-79
2022/07/22 00:28:48;;;;;;;1.60;0.80;;;19.90;99.90;;;;;;5068160;28;20666;-79
2022/07/22 00:31:14;;;;;;;0.30;0.30;;;19.70;99.90;;;;;;5068251;28;20276;-79
2022/07/22 00:33:40;;;;;;;1.77;0.93;;;19.60;99.90;;;;;;5069123;28;20192;-79
2022/07/22 00:36:06;;;;;;;0.60;0.60;;;19.70;99.90;;;;;;5065193;28;20193;-79
2022/07/22 00:38:32;;;;;;;0.60;0.60;;;19.50;99.90;;;;;;5068956;28;20201;-79
2022/07/22 00:40:57;;;;;;;0.40;0.40;;;19.50;99.90;;;;;;5057057;28;20189;-79
2022/07/22 00:43:23;;;;;;;0.70;0.50;;;19.50;99.90;;;;;;5065513;28;20205;-79
2022/07/22 00:45:48;;;;;;;0.47;0.33;;;19.40;99.90;;;;;;5062203;28;20185;-79
2022/07/22 00:48:14;;;;;;;0.77;0.73;;;19.30;99.90;;;;;;5066077;28;20270;-79
2022/07/22 00:50:40;;;;;;;0.50;0.50;;;19.10;99.90;;;;;;5062397;28;20555;-79
2022/07/22 00:53:05;;;;;;;1.87;0.87;;;19.10;99.90;;;;;;5061333;28;20721;-79
2022/07/22 00:55:33;;;;;;;0.90;0.90;;;19.20;99.90;;;;;;5065968;28;20206;-80
2022/07/22 00:57:58;;;;;;;0.53;0.50;;;19.30;99.90;;;;;;5058211;28;20185;-79
2022/07/22 01:00:24;;;;;;;0.97;0.90;;;19.60;99.90;;;;;;5058391;28;20211;-80
2022/07/22 01:02:50;;;;;;;1.27;0.90;;;19.80;99.90;;;;;;5067837;28;20250;-79
2022/07/22 01:05:15;;;;;;;1.37;1.27;;;19.90;99.90;;;;;;5059044;28;20254;-80
2022/07/22 01:07:41;;;;;;;0.53;0.37;;;20.00;99.90;;;;;;5061786;28;20188;-80
2022/07/22 01:10:07;;;;;;;0.67;0.57;;;20.10;99.90;;;;;;5064365;28;20235;-79
2022/07/22 01:12:33;;;;;;;0.63;0.63;;;20.10;99.90;;;;;;5065968;28;20197;-79
2022/07/22 01:14:58;;;;;;;0.93;0.80;;;20.10;99.90;;;;;;5063768;28;20347;-79
2022/07/22 01:17:24;;;;;;;0.70;0.70;;;19.80;99.90;;;;;;5058901;28;20192;-80
2022/07/22 01:19:50;;;;;;;1.67;1.00;;;19.40;99.90;;;;;;5062854;28;20280;-80
2022/07/22 01:22:16;;;;;;;1.60;0.90;;;19.20;99.90;;;;;;5059483;28;20188;-80
2022/07/22 01:24:41;;;;;;;0.60;0.60;;;19.10;99.90;;;;;;5060179;28;20188;-80
2022/07/22 01:27:07;;;;;;;1.37;1.00;;;19.10;99.90;;;;;;5065970;28;20189;-80
2022/07/22 01:29:32;;;;;;;1.17;1.07;;;19.00;99.90;;;;;;5062336;28;20594;-80
2022/07/22 01:31:58;;;;;;;0.70;0.60;;;19.00;99.90;;;;;;5066087;28;20650;-81
2022/07/22 01:34:24;;;;;;;0.53;0.53;;;19.20;99.90;;;;;;5067255;28;20586;-81
2022/07/22 01:36:49;;;;;;;0.47;0.47;;;19.40;99.90;;;;;;5064524;28;20300;-80
2022/07/22 01:39:15;;;;;;;0.60;0.60;;;19.30;99.90;;;;;;5058123;28;20612;-80
2022/07/22 01:41:41;;;;;;;1.73;1.40;;;19.20;99.90;;;;;;5061890;28;20210;-80
2022/07/22 01:44:07;;;;;;;2.23;0.63;;;19.20;99.90;;;;;;5066542;28;20702;-80
2022/07/22 01:46:33;;;;;;;1.03;0.90;;;19.20;99.90;;;;;;5070057;28;20268;-80
2022/07/22 01:48:58;;;;;;;1.50;0.90;;;19.30;99.90;;;;;;5062117;28;20864;-80
2022/07/22 01:51:24;;;;;;;0.60;0.60;;;19.40;99.90;;;;;;5065748;28;20220;-80
2022/07/22 01:53:49;;;;;;;0.57;0.57;;;19.20;99.90;;;;;;5070465;28;20182;-80
2022/07/22 01:56:15;;;;;;;1.57;0.97;;;19.30;99.90;;;;;;5069547;28;20246;-80
2022/07/22 01:58:41;;;;;;;0.83;0.63;;;19.10;99.90;;;;;;5071739;28;20761;-80
2022/07/22 02:01:07;;;;;;;0.40;0.40;;;19.10;99.90;;;;;;5073020;28;20173;-80
2022/07/22 02:03:33;;;;;;;1.17;1.00;;;19.10;99.90;;;;;;5067907;28;20185;-80
2022/07/22 02:05:58;;;;;;;1.33;0.97;;;19.10;99.90;;;;;;5070948;28;20185;-80
2022/07/22 02:08:24;;;;;;;1.23;0.60;;;18.90;99.90;;;;;;5069230;28;20189;-80
2022/07/22 02:10:50;;;;;;;1.53;1.43;;;18.90;99.90;;;;;;5067166;28;20197;-80
2022/07/22 02:13:15;;;;;;;1.00;0.40;;;19.10;99.90;;;;;;5073324;28;20532;-80
2022/07/22 02:15:41;;;;;;;0.70;0.70;;;19.00;99.90;;;;;;5069489;28;20251;-80
2022/07/22 02:18:15;;;;;;;0.60;0.60;;;19.20;99.90;;;;;;5071152;28;20185;-80
2022/07/22 02:20:41;;;;;;;0.50;0.50;;;19.10;99.90;;;;;;5069278;28;20266;-79
2022/07/22 02:23:06;;;;;;;0.60;0.60;;;18.90;99.90;;;;;;5070479;28;20233;-80
2022/07/22 02:25:32;;;;;;;0.80;0.80;;;18.80;99.90;;;;;;5070366;28;20564;-80
2022/07/22 02:27:58;;;;;;;1.30;0.97;;;18.60;99.90;;;;;;5059267;28;20186;-80
2022/07/22 02:30:23;;;;;;;0.87;0.80;;;18.50;99.90;;;;;;5067165;28;20584;-80
2022/07/22 02:32:49;;;;;;;0.73;0.73;;;18.70;99.90;;;;;;5070410;28;20201;-80
2022/07/22 02:35:15;;;;;;;4.87;0.73;;;18.70;99.90;;;;;;5069420;28;20284;-80
2022/07/22 02:37:40;;;;;;;1.07;0.77;;;18.80;99.90;;;;;;5063333;28;20236;-80
2022/07/22 02:40:07;;;;;;;0.30;0.30;;;19.00;99.90;;;;;;5071168;28;20216;-80
2022/07/22 02:42:33;;;;;;;0.50;0.50;;;19.00;99.90;;;;;;5068314;28;20284;-80
2022/07/22 02:44:59;;;;;;;0.83;0.80;;;19.00;99.90;;;;;;5070640;28;20185;-80
2022/07/22 02:47:25;;;;;;;0.40;0.40;;;19.20;99.90;;;;;;5060030;28;20198;-80
2022/07/22 02:49:51;;;;;;;0.63;0.63;;;19.40;99.90;;;;;;5067712;28;20585;-80
2022/07/22 02:52:17;;;;;;;1.10;1.00;;;19.50;99.90;;;;;;5072630;28;20184;-81
2022/07/22 02:54:42;;;;;;;0.53;0.53;;;19.40;99.90;;;;;;5069034;28;20185;-80
2022/07/22 02:57:08;;;;;;;0.50;0.50;;;19.20;99.90;;;;;;5065971;28;20184;-81
2022/07/22 02:59:34;;;;;;;0.80;0.80;;;19.30;99.90;;;;;;5068565;28;20205;-81
2022/07/22 03:01:59;;;;;;;0.57;0.57;;;19.40;99.90;;;;;;5070334;28;20318;-80
2022/07/22 03:04:25;;;;;;;0.70;0.57;;;19.40;99.90;;;;;;5066173;28;20192;-80
2022/07/22 03:06:51;;;;;;;0.73;0.70;;;19.30;99.90;;;;;;5065802;28;21921;-81
2022/07/22 03:09:16;;;;;;;1.17;1.07;;;19.40;99.90;;;;;;5070174;28;20208;-81
2022/07/22 03:11:42;;;;;;;0.53;0.53;;;19.40;99.90;;;;;;5064609;28;20185;-80
2022/07/22 03:14:07;;;;;;;0.47;0.47;;;19.40;99.90;;;;;;5069808;28;20294;-80
2022/07/22 03:16:33;;;;;;;1.00;1.00;;;19.50;99.90;;;;;;5064536;28;20197;-80
2022/07/22 03:18:58;;;;;;;1.80;0.83;;;19.70;99.90;;;;;;5070513;28;20315;-81
2022/07/22 03:21:24;;;;;;;0.63;0.57;;;19.40;99.90;;;;;;5072270;28;20205;-80
2022/07/22 03:23:53;;;;;;;0.47;0.47;;;19.40;99.90;;;;;;5070866;28;20193;-80
2022/07/22 03:26:20;;;;;;;1.13;0.70;;;19.20;99.90;;;;;;5071531;28;20230;-80
2022/07/22 03:28:46;;;;;;;0.80;0.80;;;19.20;99.90;;;;;;5072726;28;20229;-80
2022/07/22 03:31:12;;;;;;;2.53;0.60;;;19.20;99.90;;;;;;5072624;28;20564;-80
2022/07/22 03:33:37;;;;;;;1.80;1.23;;;19.40;99.90;;;;;;5073113;28;20194;-80
2022/07/22 03:36:05;;;;;;;1.10;0.90;;;19.30;99.90;;;;;;5072472;28;20576;-80
2022/07/22 03:38:30;;;;;;;1.10;0.70;;;19.20;99.90;;;;;;5069831;28;20290;-81
2022/07/22 03:40:56;;;;;;;0.70;0.70;;;19.20;99.90;;;;;;5068409;28;20284;-81
2022/07/22 03:43:21;;;;;;;2.10;1.47;;;18.90;99.90;;;;;;5070567;28;20234;-81
2022/07/22 03:45:47;;;;;;;0.70;0.70;;;18.70;99.90;;;;;;5068238;28;20198;-81
2022/07/22 03:48:12;;;;;;;1.20;0.90;;;18.90;99.90;;;;;;5067704;28;20673;-81
2022/07/22 03:50:38;;;;;;;0.73;0.73;;;19.00;99.90;;;;;;5062781;28;20235;-80
2022/07/22 03:53:03;;;;;;;0.27;0.27;;;19.10;99.90;;;;;;5069341;28;20238;-81
2022/07/22 03:55:29;;;;;;;0.77;0.77;;;19.00;99.90;;;;;;5069695;28;20293;-80
2022/07/22 03:57:54;;;;;;;1.00;0.80;;;19.10;99.90;;;;;;5065937;28;20609;-80
2022/07/22 04:00:20;;;;;;;2.50;1.70;;;19.00;99.90;;;;;;5065806;28;20208;-81
2022/07/22 04:02:45;;;;;;;0.97;0.97;;;18.60;99.90;;;;;;5058968;28;20181;-81
2022/07/22 04:05:11;;;;;;;0.87;0.83;;;18.60;99.90;;;;;;5068879;28;20170;-81
2022/07/22 04:07:37;;;;;;;1.10;1.10;;;18.70;99.90;;;;;;5071233;28;20181;-81
2022/07/22 04:10:05;;;;;;;3.53;0.93;;;18.80;99.90;;;;;;5074640;28;20205;-80
2022/07/22 04:12:36;;;;;;;0.30;0.30;;;18.80;99.90;;;;;;5067349;28;20184;-80
2022/07/22 04:15:03;;;;;;;1.40;0.67;;;18.80;99.90;;;;;;5085286;28;20177;-81
2022/07/22 04:17:28;;;;;;;0.80;0.80;;;18.80;99.90;;;;;;5061067;28;20182;-80
2022/07/22 04:19:54;;;;;;;0.73;0.73;;;19.10;99.90;;;;;;5065811;28;20228;-80
2022/07/22 04:22:20;;;;;;;0.60;0.60;;;18.90;99.90;;;;;;5069354;28;20212;-80
2022/07/22 04:24:45;;;;;;;1.00;1.00;;;18.90;99.90;;;;;;5063840;28;20674;-80
2022/07/22 04:27:11;;;;;;;1.17;1.03;;;18.70;99.90;;;;;;5068373;28;20181;-80
2022/07/22 04:29:36;;;;;;;1.43;1.27;;;18.60;99.90;;;;;;5068469;28;20198;-80
2022/07/22 04:32:02;;;;;;;0.60;0.60;;;18.80;99.90;;;;;;5070788;28;21821;-80
2022/07/22 04:34:27;;;;;;;0.37;0.37;;;19.00;99.90;;;;;;5063157;28;20177;-81
2022/07/22 04:36:53;;;;;;;0.70;0.70;;;19.10;99.90;;;;;;5066468;28;20753;-80
2022/07/22 04:39:18;;;;;;;1.40;1.13;;;19.20;99.90;;;;;;5061383;28;20205;-81
2022/07/22 04:41:44;;;;;;;2.23;2.10;;;19.00;99.90;;;;;;5065917;28;20192;-81
2022/07/22 04:44:09;;;;;;;0.90;0.90;;;19.00;99.90;;;;;;5068619;28;20270;-81
2022/07/22 04:46:35;;;;;;;1.20;1.10;;;19.00;99.90;;;;;;5060453;28;20189;-80
2022/07/22 04:49:00;;;;;;;5.00;0.90;;;19.00;99.90;;;;;;5068300;28;20243;-80
2022/07/22 04:51:26;;;;;;;1.07;0.97;;;19.10;99.90;;;;;;5063616;28;20694;-80
2022/07/22 04:53:51;;;;;;;2.40;1.17;;;19.30;99.90;;;;;;5058885;28;20284;-79
2022/07/22 04:56:17;;;;;;;0.60;0.60;;;19.40;99.90;;;;;;5065028;28;20207;-80
2022/07/22 04:58:42;;;;;;;0.97;0.97;;;19.40;99.90;;;;;;5067283;28;20525;-80
2022/07/22 05:01:08;;;;;;;1.93;1.10;;;19.40;99.90;;;;;;5065209;28;20223;-80
2022/07/22 05:03:34;;;;;;;0.73;0.73;;;19.30;99.90;;;;;;5081991;28;20180;-80
2022/07/22 05:06:00;;;;;;;0.80;0.57;;;19.40;99.90;;;;;;5065484;28;20259;-80
2022/07/22 05:08:25;;;;;;;0.80;0.80;;;19.50;99.90;;;;;;5061980;28;20185;-80
2022/07/22 05:10:51;;;;;;;1.50;0.93;;;19.40;99.90;;;;;;5067694;28;20230;-81
2022/07/22 05:13:16;;;;;;;0.70;0.70;;;19.20;99.90;;;;;;5063880;28;20181;-80
2022/07/22 05:15:42;;;;;;;1.30;1.20;;;19.50;99.90;;;;;;5067412;28;20239;-80
2022/07/22 05:18:07;;;;;;;1.37;1.20;;;19.30;99.90;;;;;;5069597;28;20187;-80
2022/07/22 05:20:33;;;;;;;1.30;1.20;;;19.40;99.90;;;;;;5067398;28;20207;-80
2022/07/22 05:22:58;;;;;;;0.30;0.30;;;19.90;99.90;;;;;;5067593;28;20189;-82
2022/07/22 05:25:24;;;;;;;2.57;1.07;;;20.00;99.90;;;;;;5065993;28;20189;-80
2022/07/22 05:27:51;;;;;;;0.43;0.30;;;20.10;99.90;;;;;;5063088;28;20193;-80
2022/07/22 05:30:17;;;;;;;1.20;1.00;;;20.10;99.90;;;;;;5060746;28;20242;-80
2022/07/22 05:32:42;;;;;;;0.60;0.60;;;20.60;99.90;;;;;;5067631;28;20232;-80
2022/07/22 05:35:08;;;;;;;0.83;0.83;;;20.90;99.90;;;;;;5064130;28;20212;-80
2022/07/22 05:37:33;;;;;;;0.40;0.40;;;20.80;99.90;;;;;;5063564;28;20591;-80
2022/07/22 05:39:59;;;;;;;1.23;1.07;;;20.80;99.90;;;;;;5062442;28;20209;-81
2022/07/22 05:42:24;;;;;;;0.97;0.63;;;20.60;99.90;;;;;;5066387;28;20188;-80
2022/07/22 05:44:50;;;;;;;2.27;1.50;;;20.20;99.90;;;;;;5067161;28;20189;-80
2022/07/22 05:47:15;;;;;;;1.17;1.00;;;20.40;99.90;;;;;;5063036;28;20182;-80
2022/07/22 05:49:41;;;;;;;1.10;1.00;;;20.10;99.90;;;;;;5066621;28;20289;-80
2022/07/22 05:52:06;;;;;;;3.13;1.63;;;19.90;99.90;;;;;;5069120;28;20637;-80
2022/07/22 05:54:32;;;;;;;2.23;1.37;;;19.80;99.90;;;;;;5068021;28;20181;-81
2022/07/22 05:56:57;;;;;;;1.03;0.93;;;19.70;99.90;;;;;;5065135;28;20202;-80
2022/07/22 05:59:23;;;;;;;1.77;1.40;;;19.90;99.90;;;;;;5070727;28;20197;-81
2022/07/22 06:01:48;;;;;;;2.07;1.17;;;19.90;99.90;;;;;;5061309;28;20189;-80
2022/07/22 06:04:14;;;;;;;1.77;1.60;;;19.80;99.90;;;;;;5063125;28;20260;-80
2022/07/22 06:06:40;;;;;;;1.30;1.20;;;19.80;99.90;;;;;;5064895;28;20200;-80
2022/07/22 06:09:05;;;;;;;0.93;0.90;;;19.50;99.90;;;;;;5058498;28;20741;-80
2022/07/22 06:11:31;;;;;;;3.33;1.33;;;19.70;99.90;;;;;;5065146;28;20918;-80
2022/07/22 06:13:56;;;;;;;1.00;0.93;;;19.90;99.90;;;;;;5067514;28;20596;-81
2022/07/22 06:16:22;;;;;;;1.17;1.07;;;19.80;99.90;;;;;;5066245;28;20925;-80
2022/07/22 06:18:47;;;;;;;2.57;2.30;;;20.20;99.90;;;;;;5064990;28;20203;-80
2022/07/22 06:21:13;;;;;;;0.97;0.90;;;19.90;99.90;;;;;;5067890;28;20173;-80
2022/07/22 06:23:38;;;;;;;1.97;0.90;;;19.70;99.90;;;;;;5066332;28;20187;-79
2022/07/22 06:26:04;;;;;;;1.13;0.87;;;19.80;99.90;;;;;;5063922;28;20216;-80
2022/07/22 06:28:30;;;;;;;0.60;0.60;;;19.80;99.90;;;;;;5058536;28;20189;-80
2022/07/22 06:30:55;;;;;;;0.80;0.80;;;19.80;99.90;;;;;;5065637;28;20304;-80
2022/07/22 06:33:21;;;;;;;2.20;0.73;;;19.60;99.90;;;;;;5068375;28;20177;-80
2022/07/22 06:35:46;;;;;;;0.80;0.80;;;19.90;99.90;;;;;;5067455;28;20314;-80
2022/07/22 06:38:12;;;;;;;1.17;0.80;;;20.40;99.90;;;;;;5067701;28;20173;-81
2022/07/22 06:40:37;;;;;;;1.30;0.70;;;20.50;99.90;;;;;;5071942;28;20205;-80
2022/07/22 06:43:03;;;;;;;0.80;0.80;;;20.70;99.90;;;;;;5068788;28;20180;-80
2022/07/22 06:45:29;;;;;;;2.13;1.00;;;21.00;99.90;;;;;;5068920;28;20199;-81
2022/07/22 06:47:55;;;;;;;1.20;1.10;;;20.70;99.90;;;;;;5068839;28;20659;-81
2022/07/22 06:50:20;;;;;;;0.83;0.83;;;20.70;99.90;;;;;;5068467;28;20213;-81
2022/07/22 06:52:46;;;;;;;0.47;0.47;;;20.80;99.90;;;;;;5071614;28;20193;-80
2022/07/22 06:55:12;;;;;;;1.03;0.63;;;21.20;99.90;;;;;;5067489;28;20212;-81
2022/07/22 06:57:38;;;;;;;0.70;0.70;;;21.20;99.90;;;;;;5070687;28;20185;-80
2022/07/22 07:00:07;;;;;;;0.67;0.40;;;21.30;99.90;;;;;;5066643;28;20202;-81
2022/07/22 07:02:32;;;;;;;1.93;1.07;;;21.70;99.90;;;;;;5067953;28;20181;-81
2022/07/22 07:04:58;;;;;;;0.57;0.50;;;21.60;99.90;;;;;;5068304;28;20174;-80
2022/07/22 07:07:24;;;;;;;0.60;0.60;;;22.00;99.90;;;;;;5069378;28;20181;-80
2022/07/22 07:09:49;;;;;;;1.83;1.60;;;22.20;99.90;;;;;;5068207;28;20197;-80
2022/07/22 07:12:15;;;;;;;1.57;1.47;;;21.70;99.90;;;;;;5070391;28;20180;-80
2022/07/22 07:14:40;;;;;;;0.77;0.77;;;21.50;99.90;;;;;;5064828;28;20211;-80
2022/07/22 07:17:06;;;;;;;0.83;0.83;;;21.80;99.90;;;;;;5071119;28;20617;-80
2022/07/22 07:19:31;;;;;;;0.60;0.60;;;21.80;99.90;;;;;;5070084;28;20643;-81
2022/07/22 07:21:57;;;;;;;0.57;0.57;;;22.00;99.90;;;;;;5068282;28;20552;-81
2022/07/22 07:24:22;;;;;;;0.43;0.43;;;21.80;99.90;;;;;;5068595;28;20595;-81
2022/07/22 07:26:48;;;;;;;0.73;0.73;;;22.10;99.90;;;;;;5069449;28;20654;-81
2022/07/22 07:29:13;;;;;;;1.13;0.80;;;21.70;99.90;;;;;;5086906;28;20554;-81
2022/07/22 07:31:39;;;;;;;1.00;1.00;;;22.10;99.90;;;;;;5068404;28;20183;-81
2022/07/22 07:34:04;;;;;;;1.07;0.70;;;21.70;99.90;;;;;;5070639;28;20181;-80
2022/07/22 07:36:30;;;;;;;1.13;0.90;;;21.90;99.90;;;;;;5070125;28;20572;-81
2022/07/22 07:38:55;;;;;;;1.07;1.07;;;22.30;99.90;;;;;;5067391;28;20206;-80
2022/07/22 07:41:21;;;;;;;0.50;0.50;;;22.30;99.90;;;;;;5069542;28;20177;-80
2022/07/22 07:43:47;;;;;;;0.50;0.50;;;22.20;99.90;;;;;;5069284;28;20215;-80
2022/07/22 07:46:12;;;;;;;0.77;0.77;;;22.20;99.90;;;;;;5067562;28;20181;-80
2022/07/22 07:48:38;;;;;;;0.40;0.40;;;22.40;99.90;;;;;;5069899;28;20211;-81
2022/07/22 07:51:04;;;;;;;0.93;0.73;;;22.70;99.90;;;;;;5070267;28;20177;-80
2022/07/22 07:53:30;;;;;;;2.80;1.20;;;22.50;99.90;;;;;;5069930;28;20234;-81
2022/07/22 07:55:57;;;;;;;0.60;0.60;;;22.80;99.90;;;;;;5066797;28;20229;-81
2022/07/22 07:58:23;;;;;;;1.10;1.00;;;22.70;99.90;;;;;;5069743;28;20259;-81
2022/07/22 08:00:48;;;;;;;0.83;0.80;;;22.10;99.90;;;;;;5065366;28;20560;-80
2022/07/22 08:03:14;;;;;;;1.03;1.03;;;22.30;99.90;;;;;;5062321;28;20177;-80
2022/07/22 08:05:40;;;;;;;0.70;0.70;;;22.80;99.90;;;;;;5062104;28;20570;-80
2022/07/22 08:08:06;;;;;;;0.60;0.57;;;23.10;99.90;;;;;;5069991;28;20181;-80
2022/07/22 08:10:32;;;;;;;0.43;0.43;;;23.40;99.90;;;;;;5065964;28;20670;-81
2022/07/22 08:12:58;;;;;;;0.50;0.50;;;23.70;99.90;;;;;;5065669;28;20185;-80
2022/07/22 08:15:26;;;;;;;2.93;0.70;;;24.10;99.90;;;;;;5070339;28;20205;-80
2022/07/22 08:17:52;;;;;;;1.33;1.27;;;24.10;99.90;;;;;;5084680;28;20181;-81
2022/07/22 08:20:18;;;;;;;0.90;0.90;;;23.30;99.90;;;;;;5065631;28;20208;-81
2022/07/22 08:22:44;;;;;;;3.30;1.00;;;23.00;99.90;;;;;;5066795;28;20189;-80
2022/07/22 08:25:10;;;;;;;0.83;0.83;;;22.70;99.90;;;;;;5067465;28;20242;-81
2022/07/22 08:27:35;;;;;;;0.43;0.43;;;22.90;99.90;;;;;;5067604;28;20615;-81
2022/07/22 08:30:04;;;;;;;0.50;0.50;;;23.40;99.90;;;;;;5067998;28;20216;-81
2022/07/22 08:32:30;;;;;;;0.60;0.60;;;23.90;99.90;;;;;;5068400;28;20196;-81
2022/07/22 08:34:55;;;;;;;0.80;0.80;;;24.10;99.90;;;;;;5070374;28;20185;-81
2022/07/22 08:37:21;;;;;;;0.73;0.73;;;23.90;99.90;;;;;;5068701;28;20192;-81
2022/07/22 08:39:46;;;;;;;0.97;0.83;;;24.30;99.90;;;;;;5070399;28;20216;-80
2022/07/22 08:42:13;;;;;;;3.03;1.03;;;24.60;99.90;;;;;;5077422;28;20275;-80
2022/07/22 08:44:39;;;;;;;1.17;0.90;;;24.10;99.90;;;;;;5066677;28;20630;-81
2022/07/22 08:47:05;;;;;;;4.67;1.77;;;23.40;99.90;;;;;;5065212;28;20269;-81
2022/07/22 08:49:30;;;;;;;1.47;1.10;;;23.10;99.90;;;;;;5068805;28;20270;-81
2022/07/22 08:51:56;;;;;;;0.77;0.77;;;23.60;99.90;;;;;;5063840;28;20190;-81
2022/07/22 08:54:22;;;;;;;1.30;1.20;;;23.40;99.90;;;;;;5063857;28;20197;-80
2022/07/22 08:56:51;;;;;;;0.53;0.53;;;23.70;99.90;;;;;;5066086;28;20216;-81
2022/07/22 08:59:17;;;;;;;1.93;1.57;;;23.60;99.90;;;;;;5068486;28;20201;-81
2022/07/22 09:02:02;;;;;;;0.73;0.73;;;23.50;99.90;;;;;;5067438;28;20238;-80
2022/07/22 09:04:28;;;;;;;1.17;1.07;;;24.10;99.90;;;;;;5064961;28;20351;-80
2022/07/22 09:06:54;;;;;;;0.77;0.77;;;24.70;99.90;;;;;;5060327;28;20200;-80
2022/07/22 09:09:30;;;;;;;3.07;1.00;;;25.10;99.90;;;;;;5064184;28;20403;-80
2022/07/22 09:12:09;;;;;;;6.50;2.30;;;25.20;99.90;;;;;;5063234;28;20165;-81
2022/07/22 09:14:53;;;;;;;0.63;0.63;;;25.10;99.90;;;;;;5061250;28;20201;-80
2022/07/22 09:17:27;;;;;;;0.50;0.50;;;25.20;99.90;;;;;;5063428;28;20233;-81
2022/07/22 09:19:53;;;;;;;0.80;0.80;;;25.50;99.90;;;;;;5062990;28;20555;-81
2022/07/22 09:22:51;;;;;;;0.93;0.87;;;25.30;99.90;;;;;;5058485;28;20635;-81
2022/07/22 09:25:26;;;;;;;1.47;1.37;;;25.60;99.90;;;;;;5043681;28;20216;-81
2022/07/22 09:27:52;;;;;;;1.33;1.20;;;25.40;99.90;;;;;;5064775;28;20661;-80
2022/07/22 09:30:24;;;;;;;1.33;1.23;;;24.80;99.90;;;;;;5067021;28;20246;-81
2022/07/22 09:32:54;;;;;;;1.30;1.00;;;24.80;99.90;;;;;;5067053;28;20200;-81
2022/07/22 09:35:20;;;;;;;0.83;0.83;;;25.10;99.90;;;;;;5073514;28;20219;-80
2022/07/22 09:37:52;;;;;;;0.70;0.70;;;24.90;99.90;;;;;;5063341;28;20181;-81
2022/07/22 09:40:24;;;;;;;0.70;0.70;;;24.50;99.90;;;;;;5064598;28;20701;-80
2022/07/22 09:42:54;;;;;;;0.60;0.57;;;24.40;99.90;;;;;;5067698;28;20181;-80
2022/07/22 09:45:21;;;;;;;2.53;0.87;;;25.20;99.90;;;;;;5067514;28;20311;-81
2022/07/22 09:47:49;;;;;;;0.80;0.80;;;25.00;99.90;;;;;;5059753;28;20200;-81
2022/07/22 09:50:22;;;;;;;1.40;0.90;;;25.50;99.90;;;;;;5067992;28;20216;-81
2022/07/22 09:52:50;;;;;;;1.17;1.03;;;25.40;99.90;;;;;;5061853;28;20196;-81
2022/07/22 09:55:18;;;;;;;1.50;1.23;;;25.20;99.90;;;;;;5061324;28;20214;-80
2022/07/22 09:57:44;;;;;;;0.90;0.90;;;25.00;99.90;;;;;;5059981;28;20186;-80
2022/07/22 10:00:11;;;;;;;0.60;0.60;;;25.60;99.90;;;;;;5062103;28;20198;-81
2022/07/22 10:02:44;;;;;;;0.57;0.57;;;25.80;99.90;;;;;;5067644;28;20227;-80
2022/07/22 10:05:12;;;;;;;1.40;1.17;;;26.40;99.90;;;;;;5069697;28;20273;-80
2022/07/22 10:07:40;;;;;;;1.03;0.93;;;27.00;99.90;;;;;;5067715;28;20266;-80
2022/07/22 10:10:09;;;;;;;0.60;0.60;;;26.70;99.90;;;;;;5068549;28;20743;-80
2022/07/22 10:12:36;;;;;;;1.00;1.00;;;26.60;99.90;;;;;;5066947;28;20174;-80
2022/07/22 10:15:02;;;;;;;1.07;1.00;;;25.70;99.90;;;;;;5068999;28;20212;-80
2022/07/22 10:17:28;;;;;;;1.07;1.07;;;26.10;99.90;;;;;;5068470;28;20626;-80
2022/07/22 10:19:54;;;;;;;1.13;0.87;;;26.60;99.90;;;;;;5070805;28;20221;-80
2022/07/22 10:22:38;;;;;;;1.17;1.10;;;26.40;99.90;;;;;;5070057;28;20169;-80
2022/07/22 10:25:05;;;;;;;1.27;1.17;;;26.30;99.90;;;;;;5073289;28;20184;-80
2022/07/22 10:27:52;;;;;;;0.87;0.87;;;26.40;99.90;;;;;;5069970;28;20177;-80
2022/07/22 10:30:24;;;;;;;0.77;0.77;;;27.10;99.90;;;;;;5063215;28;20678;-80
2022/07/22 10:33:17;;;;;;;4.93;1.13;;;27.40;99.90;;;;;;5069996;28;20225;-80
2022/07/22 10:35:42;;;;;;;0.90;0.90;;;27.80;99.90;;;;;;5069379;28;20205;-80
2022/07/22 10:38:11;;;;;;;0.80;0.80;;;27.90;99.90;;;;;;5070192;28;20191;-80
2022/07/22 10:40:48;;;;;;;0.83;0.83;;;28.20;99.90;;;;;;5067304;28;20689;-80
2022/07/22 10:43:16;;;;;;;1.23;1.20;;;28.40;99.90;;;;;;5070302;28;20208;-80
2022/07/22 10:45:47;;;;;;;2.50;1.38;;;27.70;99.90;;;;;;5069304;28;20214;-80
2022/07/22 10:48:15;;;;;;;0.93;0.93;;;27.00;99.90;;;;;;5065175;28;20189;-80
2022/07/22 10:50:43;;;;;;;1.43;1.30;;;26.80;99.90;;;;;;5066139;28;20304;-80
2022/07/22 10:53:24;;;;;;;1.33;0.90;;;27.50;99.90;;;;;;5066951;28;20180;-81
2022/07/22 10:56:03;;;;;;;1.67;0.90;;;27.50;99.90;;;;;;5066023;28;20205;-80
2022/07/22 10:58:34;;;;;;;1.23;1.17;;;26.70;99.90;;;;;;5087096;28;20704;-80
2022/07/22 11:01:02;;;;;;;1.43;1.00;;;26.60;99.90;;;;;;5067205;28;20654;-80
2022/07/22 11:03:30;;;;;;;2.03;1.93;;;26.80;99.90;;;;;;5070523;28;20715;-80
2022/07/22 11:05:56;;;;;;;1.20;1.10;;;27.00;99.90;;;;;;5072018;28;20192;-81
2022/07/22 11:08:22;;;;;;;1.20;1.20;;;26.60;99.90;;;;;;5065613;28;20587;-80
2022/07/22 11:10:49;;;;;;;0.80;0.80;;;26.80;99.90;;;;;;5067355;28;20204;-80
2022/07/22 11:13:37;;;;;;;1.10;1.03;;;26.50;99.90;;;;;;5084571;28;20177;-79
2022/07/22 11:16:18;;;;;;;1.43;1.23;;;26.80;99.90;;;;;;5070543;28;20666;-80
2022/07/22 11:18:45;;;;;;;1.27;1.00;;;27.20;99.90;;;;;;5069005;28;20215;-80
2022/07/22 11:21:11;;;;;;;0.95;0.95;;;27.80;99.90;;;;;;5070747;28;20724;-80
2022/07/22 11:23:40;;;;;;;0.80;0.80;;;28.40;99.90;;;;;;5068462;28;20180;-80
2022/07/22 11:26:07;;;;;;;0.95;0.93;;;28.80;99.90;;;;;;5069209;28;20271;-80
2022/07/22 11:28:39;;;;;;;2.05;1.80;;;29.30;99.90;;;;;;5069696;28;20189;-80
2022/07/22 11:31:06;;;;;;;0.95;0.95;;;28.20;99.90;;;;;;5064692;28;20268;-80
2022/07/22 11:33:32;;;;;;;1.08;0.95;;;28.80;99.90;;;;;;5068339;28;20228;-80
2022/07/22 11:36:06;;;;;;;1.58;1.33;;;29.20;99.90;;;;;;5065000;28;20228;-80
2022/07/22 11:38:41;;;;;;;1.17;0.88;;;29.60;99.90;;;;;;5058800;28;20659;-80
2022/07/22 11:41:07;;;;;;;1.63;1.08;;;29.30;99.90;;;;;;5066912;28;20185;-80
2022/07/22 11:43:43;;;;;;;1.73;0.80;;;29.30;99.90;;;;;;5067061;28;20213;-80
2022/07/22 11:46:09;;;;;;;0.45;0.45;;;29.80;99.90;;;;;;5067963;28;20213;-80
2022/07/22 11:48:35;;;;;;;0.80;0.80;;;28.80;99.90;;;;;;5068675;28;20753;-80
2022/07/22 11:51:05;;;;;;;1.08;0.88;;;28.90;99.90;;;;;;5072318;28;20193;-80
2022/07/22 11:53:31;;;;;;;1.42;1.00;;;29.20;99.90;;;;;;5069706;28;20185;-80
2022/07/22 11:56:01;;;;;;;0.88;0.88;;;29.50;99.90;;;;;;5066204;28;20705;-80
2022/07/22 11:58:54;;;;;;;1.42;1.33;;;29.20;99.90;;;;;;5071507;28;20240;-80
2022/07/22 12:01:22;;;;;;;1.00;0.98;;;28.70;99.90;;;;;;5068102;28;20279;-80
2022/07/22 12:03:50;;;;;;;0.85;0.77;;;28.50;99.90;;;;;;5067740;28;20222;-80
2022/07/22 12:06:17;;;;;;;1.85;1.25;;;28.40;99.90;;;;;;5054738;28;20207;-80
2022/07/22 12:08:46;;;;;;;0.98;0.95;;;28.40;99.90;;;;;;5085179;28;20287;-80
2022/07/22 12:11:14;;;;;;;2.13;1.58;;;28.80;99.90;;;;;;5068793;28;20185;-79
2022/07/22 12:13:47;;;;;;;1.05;1.05;;;28.50;99.90;;;;;;5067491;28;20185;-80
2022/07/22 12:16:28;;;;;;;2.47;1.02;;;29.10;99.90;;;;;;5071096;28;20748;-80
2022/07/22 12:18:56;;;;;;;1.55;1.25;;;29.10;99.90;;;;;;5069047;28;20208;-80
2022/07/22 12:21:24;;;;;;;1.48;1.38;;;28.80;99.90;;;;;;5069358;28;20212;-80
2022/07/22 12:23:55;;;;;;;1.20;1.13;;;28.80;99.90;;;;;;5069511;28;20673;-80
2022/07/22 12:26:38;;;;;;;1.92;1.42;;;28.60;99.90;;;;;;5067422;28;20284;-80
2022/07/22 12:29:20;;;;;;;1.15;1.05;;;28.50;99.90;;;;;;5062376;28;20252;-79
2022/07/22 12:31:50;;;;;;;1.45;1.35;;;28.90;99.90;;;;;;5082702;28;20272;-80
2022/07/22 12:34:17;;;;;;;2.40;1.25;;;29.00;99.90;;;;;;5069012;28;20192;-80
2022/07/22 12:36:45;;;;;;;0.80;0.80;;;28.60;99.90;;;;;;5067900;28;20233;-80
2022/07/22 12:39:18;;;;;;;2.28;0.90;;;28.50;99.90;;;;;;5079541;28;20205;-80
2022/07/22 12:41:49;;;;;;;1.58;1.48;;;28.90;99.90;;;;;;5067142;28;20176;-79
2022/07/22 12:44:17;;;;;;;1.83;1.63;;;29.10;99.90;;;;;;5068389;28;20201;-80
2022/07/22 12:46:48;;;;;;;1.35;1.25;;;29.30;99.90;;;;;;5060572;28;20190;-80
2022/07/22 12:49:16;;;;;;;0.70;0.70;;;29.20;99.90;;;;;;5065787;28;20624;-80